sensor_id;sensor_type;location;lat;lon;timestamp;temperature;humidity
64654;DHT22;51065;48.884;12.598;2022-09-01T00:01:26;14.60;99.90
64654;DHT22;51065;48.884;12.598;2022-09-01T00:03:54;14.50;99.90
64654;DHT22;51065;48.884;12.598;2022-09-01T00:06:22;14.60;99.90
64654;DHT22;51065;48.884;12.598;2022-09-01T00:08:53;14.50;99.90
64654;DHT22;51065;48.884;12.598;2022-09-01T00:11:20;14.60;99.90
64654;DHT22;51065;48.884;12.598;2022-09-01T00:13:47;14.60;99.90
64654;DHT22;51065;48.884;12.598;2022-09-01T00:16:14;14.60;99.90
64654;DHT22;51065;48.884;12.598;2022-09-01T00:18:43;14.60;99.90
64654;DHT22;51065;48.884;12.598;2022-09-01T00:21:11;14.60;99.90
64654;DHT22;51065;48.884;12.598;2022-09-01T00:23:37;14.60;99.90
64654;DHT22;51065;48.884;12.598;2022-09-01T00:26:03;14.60;99.90
64654;DHT22;51065;48.884;12.598;2022-09-01T00:28:32;14.60;99.90
64654;DHT22;51065;48.884;12.598;2022-09-01T00:30:58;14.60;99.90
64654;DHT22;51065;48.884;12.598;2022-09-01T00:33:24;14.60;99.90
64654;DHT22;51065;48.884;12.598;2022-09-01T00:35:49;14.60;99.90
64654;DHT22;51065;48.884;12.598;2022-09-01T00:38:15;14.70;99.90
64654;DHT22;51065;48.884;12.598;2022-09-01T00:40:40;14.60;99.90
64654;DHT22;51065;48.884;12.598;2022-09-01T00:43:34;14.60;99.90
64654;DHT22;51065;48.884;12.598;2022-09-01T00:46:02;14.60;99.90
64654;DHT22;51065;48.884;12.598;2022-09-01T00:48:28;14.70;99.90
64654;DHT22;51065;48.884;12.598;2022-09-01T00:50:54;14.70;99.90
64654;DHT22;51065;48.884;12.598;2022-09-01T00:53:19;14.70;99.90
64654;DHT22;51065;48.884;12.598;2022-09-01T00:55:45;14.70;99.90
64654;DHT22;51065;48.884;12.598;2022-09-01T00:58:10;14.70;99.90
64654;DHT22;51065;48.884;12.598;2022-09-01T01:00:37;14.70;99.90
64654;DHT22;51065;48.884;12.598;2022-09-01T01:03:09;14.70;99.90
64654;DHT22;51065;48.884;12.598;2022-09-01T01:05:42;14.70;99.90
64654;DHT22;51065;48.884;12.598;2022-09-01T01:08:21;14.70;99.90
64654;DHT22;51065;48.884;12.598;2022-09-01T01:10:53;14.70;99.90
64654;DHT22;51065;48.884;12.598;2022-09-01T01:13:19;14.70;99.90
64654;DHT22;51065;48.884;12.598;2022-09-01T01:15:45;14.80;99.90
64654;DHT22;51065;48.884;12.598;2022-09-01T01:18:13;14.80;99.90
64654;DHT22;51065;48.884;12.598;2022-09-01T01:20:39;14.80;99.90
64654;DHT22;51065;48.884;12.598;2022-09-01T01:23:30;14.80;99.90
64654;DHT22;51065;48.884;12.598;2022-09-01T01:26:02;14.70;99.90
64654;DHT22;51065;48.884;12.598;2022-09-01T01:28:34;14.70;99.90
64654;DHT22;51065;48.884;12.598;2022-09-01T01:31:05;14.70;99.90
64654;DHT22;51065;48.884;12.598;2022-09-01T01:33:39;14.70;99.90
64654;DHT22;51065;48.884;12.598;2022-09-01T01:36:08;14.70;99.90
64654;DHT22;51065;48.884;12.598;2022-09-01T01:38:38;14.70;99.90
64654;DHT22;51065;48.884;12.598;2022-09-01T01:41:05;14.70;99.90
64654;DHT22;51065;48.884;12.598;2022-09-01T01:43:31;14.60;99.90
64654;DHT22;51065;48.884;12.598;2022-09-01T01:45:57;14.60;99.90
64654;DHT22;51065;48.884;12.598;2022-09-01T01:48:27;14.70;99.90
64654;DHT22;51065;48.884;12.598;2022-09-01T01:50:54;14.70;99.90
64654;DHT22;51065;48.884;12.598;2022-09-01T01:53:22;14.70;99.90
64654;DHT22;51065;48.884;12.598;2022-09-01T01:55:48;14.70;99.90
64654;DHT22;51065;48.884;12.598;2022-09-01T01:58:18;14.70;99.90
64654;DHT22;51065;48.884;12.598;2022-09-01T02:00:46;14.60;99.90
64654;DHT22;51065;48.884;12.598;2022-09-01T02:03:17;14.60;99.90
64654;DHT22;51065;48.884;12.598;2022-09-01T02:05:46;14.60;99.90
64654;DHT22;51065;48.884;12.598;2022-09-01T02:08:13;14.60;99.90
64654;DHT22;51065;48.884;12.598;2022-09-01T02:10:42;14.70;99.90
64654;DHT22;51065;48.884;12.598;2022-09-01T02:13:11;14.70;99.90
64654;DHT22;51065;48.884;12.598;2022-09-01T02:15:44;14.70;99.90
64654;DHT22;51065;48.884;12.598;2022-09-01T02:18:26;14.70;99.90
64654;DHT22;51065;48.884;12.598;2022-09-01T02:20:53;14.70;99.90
64654;DHT22;51065;48.884;12.598;2022-09-01T02:23:20;14.70;99.90
64654;DHT22;51065;48.884;12.598;2022-09-01T02:25:52;14.60;99.90
64654;DHT22;51065;48.884;12.598;2022-09-01T02:28:18;14.60;99.90
64654;DHT22;51065;48.884;12.598;2022-09-01T02:30:50;14.60;99.90
64654;DHT22;51065;48.884;12.598;2022-09-01T02:33:20;14.70;99.90
64654;DHT22;51065;48.884;12.598;2022-09-01T02:35:58;14.70;99.90
64654;DHT22;51065;48.884;12.598;2022-09-01T02:38:25;14.70;99.90
64654;DHT22;51065;48.884;12.598;2022-09-01T02:40:56;14.80;99.90
64654;DHT22;51065;48.884;12.598;2022-09-01T02:43:23;14.80;99.90
64654;DHT22;51065;48.884;12.598;2022-09-01T02:45:54;14.80;99.90
64654;DHT22;51065;48.884;12.598;2022-09-01T02:48:25;14.80;99.90
64654;DHT22;51065;48.884;12.598;2022-09-01T02:50:52;14.80;99.90
64654;DHT22;51065;48.884;12.598;2022-09-01T02:53:21;14.80;99.90
64654;DHT22;51065;48.884;12.598;2022-09-01T02:55:47;14.80;99.90
64654;DHT22;51065;48.884;12.598;2022-09-01T02:58:13;14.80;99.90
64654;DHT22;51065;48.884;12.598;2022-09-01T03:00:43;14.80;99.90
64654;DHT22;51065;48.884;12.598;2022-09-01T03:03:10;14.70;99.90
64654;DHT22;51065;48.884;12.598;2022-09-01T03:05:37;14.70;99.90
64654;DHT22;51065;48.884;12.598;2022-09-01T03:08:09;14.70;99.90
64654;DHT22;51065;48.884;12.598;2022-09-01T03:10:38;14.60;99.90
64654;DHT22;51065;48.884;12.598;2022-09-01T03:13:09;14.60;99.90
64654;DHT22;51065;48.884;12.598;2022-09-01T03:15:36;14.60;99.90
64654;DHT22;51065;48.884;12.598;2022-09-01T03:18:04;14.60;99.90
64654;DHT22;51065;48.884;12.598;2022-09-01T03:20:31;14.50;99.90
64654;DHT22;51065;48.884;12.598;2022-09-01T03:23:00;14.50;99.90
64654;DHT22;51065;48.884;12.598;2022-09-01T03:25:26;14.50;99.90
64654;DHT22;51065;48.884;12.598;2022-09-01T03:27:55;14.50;99.90
64654;DHT22;51065;48.884;12.598;2022-09-01T03:30:21;14.50;99.90
64654;DHT22;51065;48.884;12.598;2022-09-01T03:32:48;14.40;99.90
64654;DHT22;51065;48.884;12.598;2022-09-01T03:35:14;14.40;99.90
64654;DHT22;51065;48.884;12.598;2022-09-01T03:37:40;14.40;99.90
64654;DHT22;51065;48.884;12.598;2022-09-01T03:40:10;14.40;99.90
64654;DHT22;51065;48.884;12.598;2022-09-01T03:42:36;14.40;99.90
64654;DHT22;51065;48.884;12.598;2022-09-01T03:45:03;14.40;99.90
64654;DHT22;51065;48.884;12.598;2022-09-01T03:47:36;14.40;99.90
64654;DHT22;51065;48.884;12.598;2022-09-01T03:50:10;14.30;99.90
64654;DHT22;51065;48.884;12.598;2022-09-01T03:52:46;14.30;99.90
64654;DHT22;51065;48.884;12.598;2022-09-01T03:55:16;14.30;99.90
64654;DHT22;51065;48.884;12.598;2022-09-01T03:57:54;14.30;99.90
64654;DHT22;51065;48.884;12.598;2022-09-01T04:00:22;14.30;99.90
64654;DHT22;51065;48.884;12.598;2022-09-01T04:02:53;14.30;99.90
64654;DHT22;51065;48.884;12.598;2022-09-01T04:05:22;14.30;99.90
64654;DHT22;51065;48.884;12.598;2022-09-01T04:07:49;14.30;99.90
64654;DHT22;51065;48.884;12.598;2022-09-01T04:10:17;14.20;99.90
64654;DHT22;51065;48.884;12.598;2022-09-01T04:12:43;14.20;99.90
64654;DHT22;51065;48.884;12.598;2022-09-01T04:15:11;14.20;99.90
64654;DHT22;51065;48.884;12.598;2022-09-01T04:17:37;14.20;99.90
64654;DHT22;51065;48.884;12.598;2022-09-01T04:20:21;14.20;99.90
64654;DHT22;51065;48.884;12.598;2022-09-01T04:22:49;14.10;99.90
64654;DHT22;51065;48.884;12.598;2022-09-01T04:25:18;14.10;99.90
64654;DHT22;51065;48.884;12.598;2022-09-01T04:27:52;14.10;99.90
64654;DHT22;51065;48.884;12.598;2022-09-01T04:30:22;14.10;99.90
64654;DHT22;51065;48.884;12.598;2022-09-01T04:32:51;14.10;99.90
64654;DHT22;51065;48.884;12.598;2022-09-01T04:35:22;14.00;99.90
64654;DHT22;51065;48.884;12.598;2022-09-01T04:37:58;14.00;99.90
64654;DHT22;51065;48.884;12.598;2022-09-01T04:40:24;14.00;99.90
64654;DHT22;51065;48.884;12.598;2022-09-01T04:42:51;14.00;99.90
64654;DHT22;51065;48.884;12.598;2022-09-01T04:45:17;14.10;99.90
64654;DHT22;51065;48.884;12.598;2022-09-01T04:47:52;14.10;99.90
64654;DHT22;51065;48.884;12.598;2022-09-01T04:50:17;14.10;99.90
64654;DHT22;51065;48.884;12.598;2022-09-01T04:52:44;14.20;99.90
64654;DHT22;51065;48.884;12.598;2022-09-01T04:55:11;14.20;99.90
64654;DHT22;51065;48.884;12.598;2022-09-01T04:57:46;14.20;99.90
64654;DHT22;51065;48.884;12.598;2022-09-01T05:00:18;14.30;99.90
64654;DHT22;51065;48.884;12.598;2022-09-01T05:02:55;14.30;99.90
64654;DHT22;51065;48.884;12.598;2022-09-01T05:05:34;14.40;99.90
64654;DHT22;51065;48.884;12.598;2022-09-01T05:08:01;14.40;99.90
64654;DHT22;51065;48.884;12.598;2022-09-01T05:10:26;14.40;99.90
64654;DHT22;51065;48.884;12.598;2022-09-01T05:12:54;14.60;99.90
64654;DHT22;51065;48.884;12.598;2022-09-01T05:15:21;14.80;99.90
64654;DHT22;51065;48.884;12.598;2022-09-01T05:17:47;15.00;99.90
64654;DHT22;51065;48.884;12.598;2022-09-01T05:20:14;15.10;99.90
64654;DHT22;51065;48.884;12.598;2022-09-01T05:22:41;15.20;99.90
64654;DHT22;51065;48.884;12.598;2022-09-01T05:25:08;15.30;99.90
64654;DHT22;51065;48.884;12.598;2022-09-01T05:27:42;15.30;99.90
64654;DHT22;51065;48.884;12.598;2022-09-01T05:30:15;15.40;99.90
64654;DHT22;51065;48.884;12.598;2022-09-01T05:32:42;15.40;99.90
64654;DHT22;51065;48.884;12.598;2022-09-01T05:35:11;15.40;99.90
64654;DHT22;51065;48.884;12.598;2022-09-01T05:37:37;15.30;99.90
64654;DHT22;51065;48.884;12.598;2022-09-01T05:40:05;15.40;99.90
64654;DHT22;51065;48.884;12.598;2022-09-01T05:42:31;15.50;99.90
64654;DHT22;51065;48.884;12.598;2022-09-01T05:44:58;15.50;99.90
64654;DHT22;51065;48.884;12.598;2022-09-01T05:47:24;15.60;99.90
64654;DHT22;51065;48.884;12.598;2022-09-01T05:49:50;15.70;99.90
64654;DHT22;51065;48.884;12.598;2022-09-01T05:52:18;15.90;99.90
64654;DHT22;51065;48.884;12.598;2022-09-01T05:54:51;16.30;99.90
64654;DHT22;51065;48.884;12.598;2022-09-01T05:57:17;17.00;99.90
64654;DHT22;51065;48.884;12.598;2022-09-01T05:59:43;17.50;99.90
64654;DHT22;51065;48.884;12.598;2022-09-01T06:02:10;18.10;99.90
64654;DHT22;51065;48.884;12.598;2022-09-01T06:04:37;18.30;99.90
64654;DHT22;51065;48.884;12.598;2022-09-01T06:07:11;18.20;99.90
64654;DHT22;51065;48.884;12.598;2022-09-01T06:09:40;18.30;99.90
64654;DHT22;51065;48.884;12.598;2022-09-01T06:12:07;18.00;99.90
64654;DHT22;51065;48.884;12.598;2022-09-01T06:14:37;18.10;99.90
64654;DHT22;51065;48.884;12.598;2022-09-01T06:17:02;18.30;99.90
64654;DHT22;51065;48.884;12.598;2022-09-01T06:19:28;18.40;99.90
64654;DHT22;51065;48.884;12.598;2022-09-01T06:21:53;18.70;99.90
64654;DHT22;51065;48.884;12.598;2022-09-01T06:24:21;18.90;99.90
64654;DHT22;51065;48.884;12.598;2022-09-01T06:26:46;18.50;99.90
64654;DHT22;51065;48.884;12.598;2022-09-01T06:29:12;18.40;99.90
64654;DHT22;51065;48.884;12.598;2022-09-01T06:31:40;18.40;99.90
64654;DHT22;51065;48.884;12.598;2022-09-01T06:34:10;18.90;99.90
64654;DHT22;51065;48.884;12.598;2022-09-01T06:36:38;19.20;99.90
64654;DHT22;51065;48.884;12.598;2022-09-01T06:39:07;19.10;99.90
64654;DHT22;51065;48.884;12.598;2022-09-01T06:41:34;18.50;99.90
64654;DHT22;51065;48.884;12.598;2022-09-01T06:44:03;18.00;99.90
64654;DHT22;51065;48.884;12.598;2022-09-01T06:46:28;17.80;99.90
64654;DHT22;51065;48.884;12.598;2022-09-01T06:48:55;17.60;99.90
64654;DHT22;51065;48.884;12.598;2022-09-01T06:51:25;17.60;99.90
64654;DHT22;51065;48.884;12.598;2022-09-01T06:53:53;17.40;99.90
64654;DHT22;51065;48.884;12.598;2022-09-01T06:56:25;17.30;99.90
64654;DHT22;51065;48.884;12.598;2022-09-01T06:58:55;17.40;99.90
64654;DHT22;51065;48.884;12.598;2022-09-01T07:01:22;17.40;99.90
64654;DHT22;51065;48.884;12.598;2022-09-01T07:03:50;17.10;99.90
64654;DHT22;51065;48.884;12.598;2022-09-01T07:06:18;17.00;99.90
64654;DHT22;51065;48.884;12.598;2022-09-01T07:08:44;17.10;99.90
64654;DHT22;51065;48.884;12.598;2022-09-01T07:11:19;17.10;99.90
64654;DHT22;51065;48.884;12.598;2022-09-01T07:13:50;17.30;99.90
64654;DHT22;51065;48.884;12.598;2022-09-01T07:16:19;17.30;99.90
64654;DHT22;51065;48.884;12.598;2022-09-01T07:18:48;17.40;99.90
64654;DHT22;51065;48.884;12.598;2022-09-01T07:21:13;17.50;99.90
64654;DHT22;51065;48.884;12.598;2022-09-01T07:23:39;17.60;99.90
64654;DHT22;51065;48.884;12.598;2022-09-01T07:26:08;17.80;99.90
64654;DHT22;51065;48.884;12.598;2022-09-01T07:28:34;18.90;99.90
64654;DHT22;51065;48.884;12.598;2022-09-01T07:31:00;19.70;99.90
64654;DHT22;51065;48.884;12.598;2022-09-01T07:33:26;20.90;99.60
64654;DHT22;51065;48.884;12.598;2022-09-01T07:35:52;21.60;96.60
64654;DHT22;51065;48.884;12.598;2022-09-01T07:38:20;22.20;94.80
64654;DHT22;51065;48.884;12.598;2022-09-01T07:40:46;22.70;91.90
64654;DHT22;51065;48.884;12.598;2022-09-01T07:43:24;23.10;87.80
64654;DHT22;51065;48.884;12.598;2022-09-01T07:45:54;23.00;83.40
64654;DHT22;51065;48.884;12.598;2022-09-01T07:48:24;22.80;82.60
64654;DHT22;51065;48.884;12.598;2022-09-01T07:50:53;22.20;85.70
64654;DHT22;51065;48.884;12.598;2022-09-01T07:53:25;21.40;90.70
64654;DHT22;51065;48.884;12.598;2022-09-01T07:55:52;20.70;93.50
64654;DHT22;51065;48.884;12.598;2022-09-01T07:58:20;20.20;95.50
64654;DHT22;51065;48.884;12.598;2022-09-01T08:00:47;20.00;98.50
64654;DHT22;51065;48.884;12.598;2022-09-01T08:03:15;19.90;98.70
64654;DHT22;51065;48.884;12.598;2022-09-01T08:05:41;19.70;98.10
64654;DHT22;51065;48.884;12.598;2022-09-01T08:08:07;19.60;99.90
64654;DHT22;51065;48.884;12.598;2022-09-01T08:10:35;19.50;99.50
64654;DHT22;51065;48.884;12.598;2022-09-01T08:13:02;19.40;99.90
64654;DHT22;51065;48.884;12.598;2022-09-01T08:15:28;19.70;99.70
64654;DHT22;51065;48.884;12.598;2022-09-01T08:17:53;20.50;99.20
64654;DHT22;51065;48.884;12.598;2022-09-01T08:20:19;20.60;97.60
64654;DHT22;51065;48.884;12.598;2022-09-01T08:22:44;21.40;97.40
64654;DHT22;51065;48.884;12.598;2022-09-01T08:25:10;21.80;92.80
64654;DHT22;51065;48.884;12.598;2022-09-01T08:27:37;21.60;93.50
64654;DHT22;51065;48.884;12.598;2022-09-01T08:30:07;21.90;92.20
64654;DHT22;51065;48.884;12.598;2022-09-01T08:32:34;22.10;91.30
64654;DHT22;51065;48.884;12.598;2022-09-01T08:35:00;22.10;87.90
64654;DHT22;51065;48.884;12.598;2022-09-01T08:37:26;21.30;89.10
64654;DHT22;51065;48.884;12.598;2022-09-01T08:39:51;21.20;91.90
64654;DHT22;51065;48.884;12.598;2022-09-01T08:42:46;22.00;90.00
64654;DHT22;51065;48.884;12.598;2022-09-01T08:45:21;23.30;85.20
64654;DHT22;51065;48.884;12.598;2022-09-01T08:47:51;24.40;74.60
64654;DHT22;51065;48.884;12.598;2022-09-01T08:50:17;24.50;70.40
64654;DHT22;51065;48.884;12.598;2022-09-01T08:52:55;23.60;72.70
64654;DHT22;51065;48.884;12.598;2022-09-01T08:55:35;22.60;77.90
64654;DHT22;51065;48.884;12.598;2022-09-01T08:58:03;21.70;76.90
64654;DHT22;51065;48.884;12.598;2022-09-01T09:00:38;20.70;79.70
64654;DHT22;51065;48.884;12.598;2022-09-01T09:03:31;20.40;82.10
64654;DHT22;51065;48.884;12.598;2022-09-01T09:06:20;20.10;83.60
64654;DHT22;51065;48.884;12.598;2022-09-01T09:08:56;20.00;86.20
64654;DHT22;51065;48.884;12.598;2022-09-01T09:11:51;20.00;83.20
64654;DHT22;51065;48.884;12.598;2022-09-01T09:14:36;20.00;84.70
64654;DHT22;51065;48.884;12.598;2022-09-01T09:17:07;20.30;88.30
64654;DHT22;51065;48.884;12.598;2022-09-01T09:19:39;20.60;90.60
64654;DHT22;51065;48.884;12.598;2022-09-01T09:22:08;21.10;85.20
64654;DHT22;51065;48.884;12.598;2022-09-01T09:24:45;21.40;82.40
64654;DHT22;51065;48.884;12.598;2022-09-01T09:27:32;21.70;80.20
64654;DHT22;51065;48.884;12.598;2022-09-01T09:30:02;22.10;80.70
64654;DHT22;51065;48.884;12.598;2022-09-01T09:32:56;22.70;78.30
64654;DHT22;51065;48.884;12.598;2022-09-01T09:41:20;22.60;72.00
64654;DHT22;51065;48.884;12.598;2022-09-01T09:46:47;24.60;61.10
64654;DHT22;51065;48.884;12.598;2022-09-01T09:51:48;24.50;58.80
64654;DHT22;51065;48.884;12.598;2022-09-01T09:54:26;24.50;58.70
64654;DHT22;51065;48.884;12.598;2022-09-01T09:57:11;23.90;58.70
64654;DHT22;51065;48.884;12.598;2022-09-01T09:59:55;23.40;59.20
64654;DHT22;51065;48.884;12.598;2022-09-01T10:02:38;22.70;59.10
64654;DHT22;51065;48.884;12.598;2022-09-01T10:07:50;21.80;60.00
64654;DHT22;51065;48.884;12.598;2022-09-01T10:13:13;21.20;59.90
64654;DHT22;51065;48.884;12.598;2022-09-01T10:15:40;20.90;62.40
64654;DHT22;51065;48.884;12.598;2022-09-01T10:18:17;20.60;63.90
64654;DHT22;51065;48.884;12.598;2022-09-01T10:23:25;20.50;65.30
64654;DHT22;51065;48.884;12.598;2022-09-01T10:25:54;20.50;67.30
64654;DHT22;51065;48.884;12.598;2022-09-01T10:28:23;20.20;68.50
64654;DHT22;51065;48.884;12.598;2022-09-01T10:30:51;20.30;68.40
64654;DHT22;51065;48.884;12.598;2022-09-01T10:33:19;20.40;69.30
64654;DHT22;51065;48.884;12.598;2022-09-01T10:35:48;20.70;70.60
64654;DHT22;51065;48.884;12.598;2022-09-01T10:38:20;20.90;69.20
64654;DHT22;51065;48.884;12.598;2022-09-01T10:40:48;21.30;67.70
64654;DHT22;51065;48.884;12.598;2022-09-01T10:43:46;21.80;68.70
64654;DHT22;51065;48.884;12.598;2022-09-01T10:48:49;23.00;64.10
64654;DHT22;51065;48.884;12.598;2022-09-01T10:53:51;24.40;59.70
64654;DHT22;51065;48.884;12.598;2022-09-01T10:59:07;24.50;56.10
64654;DHT22;51065;48.884;12.598;2022-09-01T11:04:20;25.00;56.80
64654;DHT22;51065;48.884;12.598;2022-09-01T11:06:59;24.70;54.50
64654;DHT22;51065;48.884;12.598;2022-09-01T11:09:38;24.70;56.30
64654;DHT22;51065;48.884;12.598;2022-09-01T11:15:06;24.50;53.10
64654;DHT22;51065;48.884;12.598;2022-09-01T11:20:37;23.60;54.20
64654;DHT22;51065;48.884;12.598;2022-09-01T11:23:45;23.10;57.30
64654;DHT22;51065;48.884;12.598;2022-09-01T11:25:56;22.60;55.10
64654;DHT22;51065;48.884;12.598;2022-09-01T11:31:08;21.20;60.10
64654;DHT22;51065;48.884;12.598;2022-09-01T11:33:49;20.70;61.80
64654;DHT22;51065;48.884;12.598;2022-09-01T11:41:27;19.90;63.80
64654;DHT22;51065;48.884;12.598;2022-09-01T11:43:59;19.80;65.50
64654;DHT22;51065;48.884;12.598;2022-09-01T11:46:32;19.70;66.10
64654;DHT22;51065;48.884;12.598;2022-09-01T11:49:25;19.60;65.20
64654;DHT22;51065;48.884;12.598;2022-09-01T11:51:46;19.60;65.50
64654;DHT22;51065;48.884;12.598;2022-09-01T11:54:13;19.70;65.20
64654;DHT22;51065;48.884;12.598;2022-09-01T11:56:39;19.80;65.60
64654;DHT22;51065;48.884;12.598;2022-09-01T11:59:05;20.00;65.20
64654;DHT22;51065;48.884;12.598;2022-09-01T12:01:33;20.10;64.00
64654;DHT22;51065;48.884;12.598;2022-09-01T12:04:33;20.20;63.30
64654;DHT22;51065;48.884;12.598;2022-09-01T12:07:10;20.10;61.40
64654;DHT22;51065;48.884;12.598;2022-09-01T12:09:43;20.10;63.80
64654;DHT22;51065;48.884;12.598;2022-09-01T12:12:48;20.20;61.90
64654;DHT22;51065;48.884;12.598;2022-09-01T12:15:23;20.40;65.00
64654;DHT22;51065;48.884;12.598;2022-09-01T12:17:49;21.40;61.00
64654;DHT22;51065;48.884;12.598;2022-09-01T12:20:20;22.30;59.70
64654;DHT22;51065;48.884;12.598;2022-09-01T12:22:47;23.10;56.70
64654;DHT22;51065;48.884;12.598;2022-09-01T12:25:30;23.80;53.10
64654;DHT22;51065;48.884;12.598;2022-09-01T12:28:02;24.10;52.60
64654;DHT22;51065;48.884;12.598;2022-09-01T12:30:28;24.80;49.90
64654;DHT22;51065;48.884;12.598;2022-09-01T12:32:55;25.70;52.30
64654;DHT22;51065;48.884;12.598;2022-09-01T12:35:25;26.20;46.70
64654;DHT22;51065;48.884;12.598;2022-09-01T12:37:51;26.50;46.60
64654;DHT22;51065;48.884;12.598;2022-09-01T12:40:31;26.60;46.90
64654;DHT22;51065;48.884;12.598;2022-09-01T12:42:58;26.50;44.70
64654;DHT22;51065;48.884;12.598;2022-09-01T12:45:45;26.80;43.50
64654;DHT22;51065;48.884;12.598;2022-09-01T12:48:33;26.50;44.80
64654;DHT22;51065;48.884;12.598;2022-09-01T12:51:03;25.30;46.80
64654;DHT22;51065;48.884;12.598;2022-09-01T12:53:32;24.70;48.70
64654;DHT22;51065;48.884;12.598;2022-09-01T12:56:05;24.60;49.90
64654;DHT22;51065;48.884;12.598;2022-09-01T12:58:39;24.40;52.00
64654;DHT22;51065;48.884;12.598;2022-09-01T13:01:07;24.10;51.60
64654;DHT22;51065;48.884;12.598;2022-09-01T13:03:34;24.10;52.80
64654;DHT22;51065;48.884;12.598;2022-09-01T13:06:01;24.10;51.80
64654;DHT22;51065;48.884;12.598;2022-09-01T13:08:30;24.20;53.10
64654;DHT22;51065;48.884;12.598;2022-09-01T13:11:17;24.20;49.30
64654;DHT22;51065;48.884;12.598;2022-09-01T13:13:43;24.10;51.40
64654;DHT22;51065;48.884;12.598;2022-09-01T13:16:09;23.90;51.00
64654;DHT22;51065;48.884;12.598;2022-09-01T13:18:37;23.50;54.00
64654;DHT22;51065;48.884;12.598;2022-09-01T13:21:04;23.30;51.20
64654;DHT22;51065;48.884;12.598;2022-09-01T13:23:30;23.00;53.30
64654;DHT22;51065;48.884;12.598;2022-09-01T13:25:56;22.70;55.70
64654;DHT22;51065;48.884;12.598;2022-09-01T13:28:24;22.50;54.30
64654;DHT22;51065;48.884;12.598;2022-09-01T13:30:58;22.20;54.10
64654;DHT22;51065;48.884;12.598;2022-09-01T13:33:25;21.90;54.30
64654;DHT22;51065;48.884;12.598;2022-09-01T13:35:52;21.70;54.80
64654;DHT22;51065;48.884;12.598;2022-09-01T13:38:18;21.50;55.00
64654;DHT22;51065;48.884;12.598;2022-09-01T13:40:44;21.40;55.00
64654;DHT22;51065;48.884;12.598;2022-09-01T13:43:11;21.30;54.20
64654;DHT22;51065;48.884;12.598;2022-09-01T13:45:37;21.20;56.70
64654;DHT22;51065;48.884;12.598;2022-09-01T13:48:06;21.30;57.00
64654;DHT22;51065;48.884;12.598;2022-09-01T13:50:32;21.30;56.30
64654;DHT22;51065;48.884;12.598;2022-09-01T13:52:57;21.50;55.50
64654;DHT22;51065;48.884;12.598;2022-09-01T13:55:25;21.70;57.60
64654;DHT22;51065;48.884;12.598;2022-09-01T13:57:52;22.00;55.50
64654;DHT22;51065;48.884;12.598;2022-09-01T14:00:21;22.30;53.00
64654;DHT22;51065;48.884;12.598;2022-09-01T14:02:51;22.60;53.20
64654;DHT22;51065;48.884;12.598;2022-09-01T14:05:25;23.10;52.90
64654;DHT22;51065;48.884;12.598;2022-09-01T14:07:52;23.10;51.20
64654;DHT22;51065;48.884;12.598;2022-09-01T14:10:19;23.30;51.70
64654;DHT22;51065;48.884;12.598;2022-09-01T14:12:46;23.50;49.30
64654;DHT22;51065;48.884;12.598;2022-09-01T14:15:14;23.10;51.10
64654;DHT22;51065;48.884;12.598;2022-09-01T14:17:40;23.20;50.20
64654;DHT22;51065;48.884;12.598;2022-09-01T14:20:09;23.10;51.40
64654;DHT22;51065;48.884;12.598;2022-09-01T14:22:38;23.00;52.00
64654;DHT22;51065;48.884;12.598;2022-09-01T14:25:05;22.90;56.50
64654;DHT22;51065;48.884;12.598;2022-09-01T14:27:31;22.70;57.90
64654;DHT22;51065;48.884;12.598;2022-09-01T14:29:56;22.70;58.10
64654;DHT22;51065;48.884;12.598;2022-09-01T14:32:22;22.80;57.40
64654;DHT22;51065;48.884;12.598;2022-09-01T14:34:52;23.50;55.40
64654;DHT22;51065;48.884;12.598;2022-09-01T14:37:18;24.00;55.20
64654;DHT22;51065;48.884;12.598;2022-09-01T14:39:55;24.40;54.70
64654;DHT22;51065;48.884;12.598;2022-09-01T14:42:21;24.40;52.50
64654;DHT22;51065;48.884;12.598;2022-09-01T14:44:50;24.50;53.00
64654;DHT22;51065;48.884;12.598;2022-09-01T14:47:16;24.20;52.70
64654;DHT22;51065;48.884;12.598;2022-09-01T14:49:42;23.70;54.70
64654;DHT22;51065;48.884;12.598;2022-09-01T14:52:08;23.20;54.20
64654;DHT22;51065;48.884;12.598;2022-09-01T14:54:36;22.90;52.80
64654;DHT22;51065;48.884;12.598;2022-09-01T14:57:03;22.50;54.90
64654;DHT22;51065;48.884;12.598;2022-09-01T14:59:29;22.10;56.60
64654;DHT22;51065;48.884;12.598;2022-09-01T15:01:55;21.90;57.40
64654;DHT22;51065;48.884;12.598;2022-09-01T15:04:21;21.80;57.10
64654;DHT22;51065;48.884;12.598;2022-09-01T15:06:47;21.60;58.70
64654;DHT22;51065;48.884;12.598;2022-09-01T15:09:12;21.50;59.60
64654;DHT22;51065;48.884;12.598;2022-09-01T15:11:40;21.30;60.60
64654;DHT22;51065;48.884;12.598;2022-09-01T15:14:05;21.20;60.70
64654;DHT22;51065;48.884;12.598;2022-09-01T15:16:31;21.20;60.80
64654;DHT22;51065;48.884;12.598;2022-09-01T15:19:04;21.10;60.40
64654;DHT22;51065;48.884;12.598;2022-09-01T15:21:30;21.00;62.20
64654;DHT22;51065;48.884;12.598;2022-09-01T15:23:59;21.10;61.50
64654;DHT22;51065;48.884;12.598;2022-09-01T15:26:25;21.10;61.20
64654;DHT22;51065;48.884;12.598;2022-09-01T15:28:52;21.10;62.00
64654;DHT22;51065;48.884;12.598;2022-09-01T15:31:20;21.10;61.50
64654;DHT22;51065;48.884;12.598;2022-09-01T15:33:46;21.00;60.60
64654;DHT22;51065;48.884;12.598;2022-09-01T15:36:17;20.90;62.10
64654;DHT22;51065;48.884;12.598;2022-09-01T15:38:43;20.90;62.30
64654;DHT22;51065;48.884;12.598;2022-09-01T15:41:14;20.80;62.70
64654;DHT22;51065;48.884;12.598;2022-09-01T15:43:39;20.70;63.70
64654;DHT22;51065;48.884;12.598;2022-09-01T15:46:05;20.60;65.20
64654;DHT22;51065;48.884;12.598;2022-09-01T15:48:31;20.60;65.10
64654;DHT22;51065;48.884;12.598;2022-09-01T15:51:25;20.50;64.40
64654;DHT22;51065;48.884;12.598;2022-09-01T15:53:54;20.40;64.80
64654;DHT22;51065;48.884;12.598;2022-09-01T15:56:20;20.40;62.70
64654;DHT22;51065;48.884;12.598;2022-09-01T15:58:46;20.30;62.80
64654;DHT22;51065;48.884;12.598;2022-09-01T16:01:12;20.40;65.80
64654;DHT22;51065;48.884;12.598;2022-09-01T16:03:38;20.30;66.60
64654;DHT22;51065;48.884;12.598;2022-09-01T16:06:04;20.30;64.50
64654;DHT22;51065;48.884;12.598;2022-09-01T16:08:31;20.30;65.00
64654;DHT22;51065;48.884;12.598;2022-09-01T16:10:57;20.20;66.50
64654;DHT22;51065;48.884;12.598;2022-09-01T16:13:23;20.20;61.70
64654;DHT22;51065;48.884;12.598;2022-09-01T16:21:51;19.90;65.90